Time;durP1;ratioP1;P1;durP2;ratioP2;P2;SDS_P1;SDS_P2;PMS_P1;PMS_P2;Temp;Humidity;BMP_temperature;BMP_pressure;BME280_temperature;BME280_humidity;BME280_pressure;Samples;Min_cycle;Max_cycle;Signal;HPM_P1;HPM_P2
2022/01/13 00:02:32;;;;;;;15.10;10.60;;;;;;;1.97;100.00;101470.09;4953254;29;20212;-84
2022/01/13 00:05:04;;;;;;;17.23;10.90;;;;;;;1.82;100.00;101462.97;4953783;29;20196;-84
2022/01/13 00:07:33;;;;;;;16.57;10.73;;;;;;;1.90;100.00;101470.91;4945898;29;20195;-84
2022/01/13 00:10:03;;;;;;;15.73;10.57;;;;;;;2.07;100.00;101464.06;5016041;28;20201;-84
2022/01/13 00:12:36;;;;;;;15.73;10.53;;;;;;;2.02;100.00;101471.00;5032742;28;20197;-83
2022/01/13 00:23:43;;;;;;;18.33;11.03;;;;;;;2.22;100.00;101458.97;5081711;28;20677;-84
2022/01/13 00:26:18;;;;;;;17.87;10.77;;;;;;;1.89;100.00;101458.69;5097009;28;20199;-85
2022/01/13 00:28:50;;;;;;;15.77;10.17;;;;;;;1.80;100.00;101462.09;5093947;28;20222;-83
2022/01/13 00:31:27;;;;;;;18.30;10.77;;;;;;;2.00;100.00;101462.28;5054170;28;20244;-84
2022/01/13 00:33:58;;;;;;;15.33;11.30;;;;;;;1.87;100.00;101463.03;5050307;28;20189;-84
2022/01/13 00:36:28;;;;;;;12.70;8.97;;;;;;;1.94;100.00;101465.72;5053331;28;20212;-84
2022/01/13 00:38:57;;;;;;;10.80;7.33;;;;;;;1.94;100.00;101465.72;5054735;28;20200;-84
2022/01/13 00:41:29;;;;;;;10.57;7.17;;;;;;;1.88;100.00;101483.97;5049887;28;20189;-84
2022/01/13 00:43:59;;;;;;;10.73;7.40;;;;;;;1.87;100.00;101478.72;5049471;28;20209;-84
2022/01/13 00:46:40;;;;;;;12.67;8.27;;;;;;;1.93;100.00;101478.75;5051744;28;20201;-84
2022/01/13 00:49:09;;;;;;;12.00;8.47;;;;;;;1.92;100.00;101477.00;5062248;28;20199;-84
2022/01/13 00:51:38;;;;;;;14.17;8.53;;;;;;;1.86;100.00;101472.63;5091265;28;20200;-84
2022/01/13 00:54:08;;;;;;;14.57;9.10;;;;;;;1.82;100.00;101468.22;5075294;28;20196;-84
2022/01/13 00:56:37;;;;;;;13.03;8.63;;;;;;;1.75;100.00;101486.47;5090138;28;20289;-84
2022/01/13 00:59:08;;;;;;;12.67;8.90;;;;;;;1.71;100.00;101485.53;5090343;28;20196;-83
2022/01/13 01:01:40;;;;;;;14.53;9.50;;;;;;;1.71;100.00;101485.53;5098224;28;20642;-84
2022/01/13 01:04:09;;;;;;;16.43;9.20;;;;;;;1.44;100.00;101497.44;5092460;28;20682;-84
2022/01/13 01:06:38;;;;;;;16.57;10.30;;;;;;;1.46;100.00;101501.84;5094150;28;20200;-84
2022/01/13 01:09:12;;;;;;;16.73;11.10;;;;;;;1.43;100.00;101497.44;5064048;28;20231;-84
2022/01/13 01:11:41;;;;;;;17.90;11.17;;;;;;;1.26;100.00;101492.03;5088390;28;20203;-83
2022/01/13 01:14:12;;;;;;;18.90;12.10;;;;;;;1.45;100.00;101487.91;5096113;28;20191;-84
2022/01/13 01:16:42;;;;;;;19.27;12.80;;;;;;;1.57;100.00;101493.25;5092790;28;20223;-84
2022/01/13 01:19:11;;;;;;;19.73;12.20;;;;;;;1.65;100.00;101491.59;5084284;28;20274;-84
2022/01/13 01:24:56;;;;;;;20.50;13.47;;;;;;;1.71;100.00;101489.00;5079746;28;20208;-84
2022/01/13 01:27:31;;;;;;;17.80;12.60;;;;;;;1.58;100.00;101483.66;5092461;28;20214;-85
2022/01/13 01:30:07;;;;;;;20.33;13.60;;;;;;;1.49;100.00;101492.28;5073456;28;20192;-84
2022/01/13 01:32:39;;;;;;;21.87;14.57;;;;;;;1.32;100.00;101486.88;4974227;28;20227;-84
2022/01/13 01:35:13;;;;;;;25.47;15.07;;;;;;;1.48;100.00;101490.53;4974666;28;20234;-85
2022/01/13 01:37:42;;;;;;;22.73;15.33;;;;;;;1.33;100.00;101491.22;4964452;28;20744;-84
2022/01/13 01:40:12;;;;;;;24.73;15.77;;;;;;;1.38;100.00;101483.47;4974684;28;20219;-84
2022/01/13 01:42:41;;;;;;;23.30;15.60;;;;;;;1.49;100.00;101486.19;4970996;28;20666;-84
2022/01/13 01:45:11;;;;;;;25.70;17.57;;;;;;;1.49;100.00;101486.19;4972850;28;20278;-84
2022/01/13 01:47:43;;;;;;;26.47;16.77;;;;;;;1.04;100.00;101483.06;4927352;28;20203;-84
2022/01/13 01:50:18;;;;;;;29.77;18.07;;;;;;;1.17;100.00;101485.84;4992586;28;20637;-84
2022/01/13 01:52:47;;;;;;;34.57;19.77;;;;;;;1.22;100.00;101487.63;5043712;28;20188;-84
2022/01/13 01:55:17;;;;;;;29.63;19.40;;;;;;;1.41;100.00;101480.88;5053078;28;20193;-84
2022/01/13 01:57:47;;;;;;;35.37;20.07;;;;;;;1.33;100.00;101477.28;5060280;28;20248;-84
2022/01/13 02:00:18;;;;;;;37.30;19.93;;;;;;;1.16;100.00;101482.34;5075299;28;20199;-83
2022/01/13 02:02:48;;;;;;;35.30;19.93;;;;;;;0.91;100.00;101488.13;5104998;28;20673;-84
2022/01/13 02:05:17;;;;;;;36.27;22.13;;;;;;;0.93;100.00;101495.09;5088567;28;20287;-84
2022/01/13 02:07:45;;;;;;;36.47;20.57;;;;;;;0.93;100.00;101495.09;5094305;28;20283;-84
2022/01/13 02:10:15;;;;;;;31.17;18.77;;;;;;;1.18;100.00;101498.03;5092498;28;20199;-84
2022/01/13 02:12:50;;;;;;;36.00;22.23;;;;;;;0.90;100.00;101502.03;5091457;28;20188;-84
2022/01/13 02:15:32;;;;;;;35.63;20.23;;;;;;;0.90;100.00;101502.03;5092137;28;20198;-84
2022/01/13 02:18:06;;;;;;;37.80;20.57;;;;;;;0.96;100.00;101505.56;5090031;28;20211;-84
2022/01/13 02:20:44;;;;;;;39.13;22.47;;;;;;;0.72;100.00;101502.63;5093404;28;20253;-84
2022/01/13 02:23:13;;;;;;;40.10;21.73;;;;;;;0.70;100.00;101500.03;5083482;28;20192;-84
2022/01/13 02:25:41;;;;;;;37.50;22.23;;;;;;;0.69;100.00;101506.09;5032662;28;20193;-83
2022/01/13 02:28:09;;;;;;;41.17;22.10;;;;;;;0.75;100.00;101510.50;5029975;28;20204;-85
2022/01/13 02:30:38;;;;;;;42.23;23.37;;;;;;;0.72;100.00;101510.47;5029697;28;20196;-84
2022/01/13 02:33:06;;;;;;;41.10;25.00;;;;;;;0.66;100.00;101508.63;5013496;28;20259;-81
2022/01/13 02:35:36;;;;;;;39.47;21.67;;;;;;;0.85;100.00;101515.84;5030003;28;20702;-84
2022/01/13 02:38:11;;;;;;;39.23;22.13;;;;;;;1.03;100.00;101506.53;5014541;28;20228;-83
2022/01/13 02:40:40;;;;;;;42.93;22.03;;;;;;;1.03;100.00;101510.00;5006476;28;20202;-84
2022/01/13 02:43:09;;;;;;;41.90;21.93;;;;;;;1.11;100.00;101508.38;5022059;28;20643;-84
2022/01/13 02:45:51;;;;;;;40.80;21.20;;;;;;;1.10;100.00;101506.63;5072019;28;20203;-84
2022/01/13 02:48:30;;;;;;;36.73;21.47;;;;;;;0.95;100.00;101498.59;5071176;28;20188;-83
2022/01/13 02:51:01;;;;;;;38.67;19.97;;;;;;;1.06;100.00;101497.03;5080752;28;20195;-84
2022/01/13 02:53:31;;;;;;;38.90;21.97;;;;;;;0.92;100.00;101485.50;5077047;28;20191;-84
2022/01/13 02:56:04;;;;;;;34.03;20.03;;;;;;;0.60;100.00;101484.22;5109011;28;20269;-83
2022/01/13 02:58:35;;;;;;;37.13;20.53;;;;;;;0.65;100.00;101483.41;5107447;28;20214;-83
2022/01/13 03:01:06;;;;;;;34.67;19.87;;;;;;;0.81;100.00;101488.00;5106114;28;20203;-83
2022/01/13 03:03:36;;;;;;;35.83;19.70;;;;;;;0.87;100.00;101484.59;5105087;28;20199;-84
2022/01/13 03:06:09;;;;;;;37.07;19.67;;;;;;;0.87;100.00;101484.59;5106029;28;20199;-84
2022/01/13 03:08:45;;;;;;;34.60;20.07;;;;;;;0.65;100.00;101495.56;5114652;28;20195;-83
2022/01/13 03:11:14;;;;;;;33.73;18.90;;;;;;;0.79;100.00;101488.84;5110162;28;20199;-83
2022/01/13 03:13:43;;;;;;;36.93;20.77;;;;;;;0.74;100.00;101495.69;5108786;28;20198;-84
2022/01/13 03:16:15;;;;;;;34.73;18.87;;;;;;;0.65;100.00;101492.97;5103868;28;20195;-83
2022/01/13 03:18:46;;;;;;;32.27;18.80;;;;;;;0.71;100.00;101490.47;5109428;28;20209;-84
2022/01/13 03:21:15;;;;;;;30.27;18.57;;;;;;;0.55;100.00;101481.53;5113295;28;20183;-83
2022/01/13 03:23:46;;;;;;;37.77;20.33;;;;;;;0.64;100.00;101491.22;5103178;28;20198;-84
2022/01/13 03:26:15;;;;;;;36.40;18.53;;;;;;;0.72;100.00;101494.81;5114015;28;20187;-83
2022/01/13 03:28:55;;;;;;;30.10;17.97;;;;;;;0.80;100.00;101494.06;5114027;28;20650;-84
2022/01/13 03:31:24;;;;;;;32.20;18.53;;;;;;;0.86;100.00;101483.69;5109635;28;20248;-84
2022/01/13 03:33:54;;;;;;;34.87;19.83;;;;;;;0.62;100.00;101482.50;5107825;28;20195;-84
2022/01/13 03:36:23;;;;;;;31.03;17.10;;;;;;;0.59;100.00;101483.34;5105568;28;20260;-84
2022/01/13 03:38:56;;;;;;;30.10;17.97;;;;;;;0.57;100.00;101479.81;5111035;28;20214;-83
2022/01/13 03:41:24;;;;;;;32.90;17.87;;;;;;;0.39;100.00;101484.78;5109466;28;20183;-83
2022/01/13 03:43:54;;;;;;;33.23;18.20;;;;;;;0.17;100.00;101470.53;5104993;28;20681;-84
2022/01/13 03:46:24;;;;;;;29.50;18.50;;;;;;;0.28;100.00;101468.97;5075333;28;20206;-84
2022/01/13 03:48:55;;;;;;;29.93;17.30;;;;;;;0.39;100.00;101470.03;5106418;28;20187;-84
2022/01/13 03:51:23;;;;;;;30.20;17.83;;;;;;;0.36;100.00;101464.75;5101710;28;20263;-84
2022/01/13 03:54:25;;;;;;;30.40;17.33;;;;;;;0.41;100.00;101462.22;5109744;28;20187;-84
2022/01/13 03:57:47;;;;;;;33.00;18.57;;;;;;;0.35;100.00;101463.00;5101317;28;20342;-85
2022/01/13 04:01:07;;;;;;;33.53;18.60;;;;;;;0.46;100.00;101469.25;5080697;28;20198;-84
2022/01/13 04:03:37;;;;;;;31.60;18.70;;;;;;;0.53;100.00;101467.59;5031063;28;20201;-84
2022/01/13 04:06:28;;;;;;;38.90;21.43;;;;;;;0.32;100.00;101457.75;4997053;28;20186;-83
2022/01/13 04:08:57;;;;;;;37.07;21.17;;;;;;;0.34;100.00;101457.78;5080878;28;20191;-84
2022/01/13 04:11:32;;;;;;;35.03;19.97;;;;;;;0.39;100.00;101448.31;5047026;28;20201;-84
2022/01/13 04:14:02;;;;;;;38.97;22.20;;;;;;;0.41;100.00;101447.47;5045967;28;20197;-84
2022/01/13 04:16:33;;;;;;;40.47;22.50;;;;;;;0.21;100.00;101441.09;5051033;28;20186;-84
2022/01/13 04:19:06;;;;;;;41.37;22.53;;;;;;;0.06;100.00;101436.50;5048432;28;20228;-84
2022/01/13 04:21:34;;;;;;;37.73;22.07;;;;;;;0.20;100.00;101444.53;5041599;28;20193;-84
2022/01/13 04:24:05;;;;;;;39.17;20.63;;;;;;;0.13;100.00;101448.78;5048356;28;20193;-84
2022/01/13 04:26:34;;;;;;;36.07;19.50;;;;;;;0.33;100.00;101451.69;4988005;28;20195;-84
2022/01/13 04:29:19;;;;;;;36.20;21.03;;;;;;;0.33;100.00;101451.69;4985776;28;20217;-85
2022/01/13 04:31:49;;;;;;;34.97;19.93;;;;;;;0.42;100.00;101464.84;4914553;29;20237;-83
2022/01/13 04:34:20;;;;;;;40.67;21.73;;;;;;;0.42;100.00;101454.41;4873241;29;20215;-84
2022/01/13 04:36:49;;;;;;;45.17;22.33;;;;;;;0.26;100.00;101468.06;4920961;29;20205;-84
2022/01/13 04:39:17;;;;;;;44.23;22.50;;;;;;;0.08;100.00;101459.97;4933789;29;20284;-84
2022/01/13 04:41:47;;;;;;;42.67;22.07;;;;;;;0.13;100.00;101459.19;4934023;28;20201;-85
2022/01/13 04:44:18;;;;;;;43.90;21.57;;;;;;;0.31;100.00;101463.81;4952834;28;20202;-84
2022/01/13 04:46:47;;;;;;;42.23;23.20;;;;;;;0.09;100.00;101461.72;5015157;28;20195;-84
2022/01/13 04:49:18;;;;;;;47.63;25.47;;;;;;;0.19;100.00;101479.25;5036341;28;20197;-83
2022/01/13 04:51:50;;;;;;;44.30;24.93;;;;;;;0.11;100.00;101486.97;5083787;28;20209;-83
2022/01/13 04:54:19;;;;;;;44.80;20.93;;;;;;;0.19;100.00;101484.47;5117048;28;20191;-84
2022/01/13 04:57:05;;;;;;;45.97;23.30;;;;;;;0.06;100.00;101495.53;5111750;28;20240;-84
2022/01/13 04:59:34;;;;;;;47.20;23.57;;;;;;;-0.06;100.00;101486.69;5113788;28;20211;-84
2022/01/13 05:02:03;;;;;;;49.03;24.73;;;;;;;-0.02;100.00;101490.19;5031565;28;20193;-84
2022/01/13 05:04:31;;;;;;;41.80;21.23;;;;;;;0.16;100.00;101492.25;5027448;28;20190;-85
2022/01/13 05:07:01;;;;;;;51.13;24.57;;;;;;;0.03;100.00;101491.16;5028202;28;20213;-85
2022/01/13 05:09:32;;;;;;;48.50;24.43;;;;;;;0.03;100.00;101485.09;5031861;28;20197;-83
2022/01/13 05:12:02;;;;;;;51.13;24.50;;;;;;;0.10;100.00;101487.81;5033168;28;20205;-86
2022/01/13 05:14:31;;;;;;;56.43;26.73;;;;;;;0.01;100.00;101477.25;5027327;28;20197;-86
2022/01/13 05:17:05;;;;;;;47.97;24.67;;;;;;;0.25;100.00;101484.56;5028650;28;20750;-85
2022/01/13 05:19:38;;;;;;;51.73;24.13;;;;;;;0.13;100.00;101479.16;5046857;28;20222;-84
2022/01/13 05:22:17;;;;;;;49.90;25.23;;;;;;;0.25;100.00;101480.22;5106341;28;20203;-84
2022/01/13 05:24:48;;;;;;;54.30;27.03;;;;;;;0.34;100.00;101478.63;5112203;28;20259;-86
2022/01/13 05:27:19;;;;;;;49.93;24.80;;;;;;;0.24;100.00;101480.22;5132685;28;20179;-82
2022/01/13 05:29:47;;;;;;;49.43;23.33;;;;;;;0.27;100.00;101481.13;5122678;28;20190;-85
2022/01/13 05:32:16;;;;;;;44.60;22.60;;;;;;;0.31;100.00;101482.06;5110756;28;20223;-85
2022/01/13 05:34:45;;;;;;;50.73;23.27;;;;;;;0.01;100.00;101472.03;5107576;28;20242;-84
2022/01/13 05:37:15;;;;;;;45.97;23.03;;;;;;;0.03;100.00;101472.06;5112664;28;20292;-85
2022/01/13 05:39:43;;;;;;;48.63;23.73;;;;;;;0.06;100.00;101466.88;5111396;28;20218;-85
2022/01/13 05:42:12;;;;;;;48.53;22.87;;;;;;;0.19;100.00;101481.84;5117681;28;20222;-85
2022/01/13 05:44:41;;;;;;;48.87;23.27;;;;;;;0.37;100.00;101474.31;5126069;28;20213;-81
2022/01/13 05:47:11;;;;;;;53.03;23.73;;;;;;;0.18;100.00;101482.72;5136801;28;20194;-82
2022/01/13 05:49:41;;;;;;;50.37;23.77;;;;;;;0.31;100.00;101489.88;5136759;28;20186;-84
2022/01/13 05:52:11;;;;;;;47.23;23.20;;;;;;;0.43;100.00;101495.28;5138969;28;20183;-83
2022/01/13 05:54:42;;;;;;;45.37;21.93;;;;;;;0.55;100.00;101498.06;5123760;28;20194;-84
2022/01/13 05:57:10;;;;;;;52.87;25.43;;;;;;;0.26;100.00;101492.41;5105121;28;20409;-85
2022/01/13 05:59:38;;;;;;;43.67;21.03;;;;;;;0.25;100.00;101495.00;5108253;28;20222;-85
2022/01/13 06:02:06;;;;;;;49.23;23.27;;;;;;;0.14;100.00;101480.91;5115309;28;20187;-84
2022/01/13 06:04:35;;;;;;;48.83;23.53;;;;;;;0.23;100.00;101487.16;5108445;28;20195;-85
2022/01/13 06:07:04;;;;;;;46.90;23.10;;;;;;;0.35;100.00;101486.47;5111638;28;20187;-85
2022/01/13 06:09:34;;;;;;;48.93;22.83;;;;;;;0.53;100.00;101485.84;5076633;28;20206;-85
2022/01/13 06:12:05;;;;;;;51.47;24.80;;;;;;;0.56;100.00;101485.88;5107524;28;20190;-86
2022/01/13 06:14:33;;;;;;;43.33;22.97;;;;;;;0.67;100.00;101483.44;5112135;28;20231;-85
2022/01/13 06:17:03;;;;;;;48.67;23.97;;;;;;;0.27;100.00;101488.06;5110637;28;20207;-85
2022/01/13 06:19:31;;;;;;;45.87;22.70;;;;;;;0.63;100.00;101485.13;5115439;28;20222;-84
2022/01/13 06:21:59;;;;;;;44.90;22.83;;;;;;;0.58;100.00;101484.22;5109748;28;20207;-85
2022/01/13 06:24:28;;;;;;;41.63;20.93;;;;;;;0.64;100.00;101484.28;5109818;28;20195;-84
2022/01/13 06:26:57;;;;;;;49.63;22.87;;;;;;;0.16;100.00;101484.41;5114999;28;20256;-85
2022/01/13 06:29:26;;;;;;;34.00;19.27;;;;;;;0.34;100.00;101479.50;5111750;28;20248;-85
2022/01/13 06:31:56;;;;;;;37.10;19.37;;;;;;;0.39;100.00;101488.28;5109249;28;20227;-85
2022/01/13 06:34:24;;;;;;;38.47;19.27;;;;;;;0.54;100.00;101490.22;5111398;28;20191;-84
2022/01/13 06:36:53;;;;;;;40.80;21.63;;;;;;;0.33;100.00;101493.38;5113683;28;20202;-85
2022/01/13 06:39:22;;;;;;;36.43;19.63;;;;;;;0.46;100.00;101489.22;5106651;28;20696;-85
2022/01/13 06:41:51;;;;;;;36.83;19.50;;;;;;;0.35;100.00;101491.66;5111786;28;20259;-85
2022/01/13 06:44:19;;;;;;;31.70;16.67;;;;;;;0.23;100.00;101496.69;5107832;28;20199;-84
2022/01/13 06:46:48;;;;;;;32.90;18.70;;;;;;;0.17;100.00;101501.81;5107581;28;20211;-84
2022/01/13 06:49:17;;;;;;;33.67;18.90;;;;;;;-0.03;100.00;101498.88;5111668;28;20203;-84
2022/01/13 06:51:45;;;;;;;31.73;18.70;;;;;;;-0.07;100.00;101502.28;5111487;28;20191;-84
2022/01/13 06:54:13;;;;;;;31.40;17.43;;;;;;;0.02;100.00;101507.66;5109419;28;20233;-84
2022/01/13 06:56:43;;;;;;;32.87;15.50;;;;;;;0.12;100.00;101509.56;5114580;28;20666;-84
2022/01/13 06:59:13;;;;;;;28.63;15.83;;;;;;;0.18;100.00;101509.63;5111249;28;20222;-85
2022/01/13 07:01:42;;;;;;;29.20;15.13;;;;;;;0.20;100.00;101510.56;5105881;28;20256;-85
2022/01/13 07:04:13;;;;;;;31.13;16.30;;;;;;;0.04;100.00;101511.16;5108590;28;20203;-84
2022/01/13 07:06:42;;;;;;;30.17;16.27;;;;;;;0.12;100.00;101509.56;5108786;28;20206;-85
2022/01/13 07:09:13;;;;;;;28.10;16.07;;;;;;;0.08;100.00;101501.66;5113662;28;20198;-84
2022/01/13 07:11:42;;;;;;;30.03;15.70;;;;;;;0.01;100.00;101505.03;5104372;28;20195;-86
2022/01/13 07:14:10;;;;;;;28.87;15.70;;;;;;;0.03;100.00;101511.13;5105885;28;20244;-85
2022/01/13 07:16:39;;;;;;;30.30;16.13;;;;;;;0.00;100.00;101519.78;5114267;28;20194;-84
2022/01/13 07:19:10;;;;;;;36.13;18.50;;;;;;;-0.05;100.00;101516.22;5107526;28;20287;-84
2022/01/13 07:21:44;;;;;;;30.83;16.73;;;;;;;0.10;100.00;101519.09;5106255;28;20199;-84
2022/01/13 07:24:12;;;;;;;33.30;17.10;;;;;;;0.15;100.00;101516.53;5108580;28;20189;-84
2022/01/13 07:26:42;;;;;;;33.30;18.70;;;;;;;0.09;100.00;101529.47;5103755;28;20230;-84
2022/01/13 07:29:10;;;;;;;32.47;17.63;;;;;;;0.04;100.00;101526.78;5107011;28;20650;-84
2022/01/13 07:31:39;;;;;;;35.07;19.33;;;;;;;-0.01;100.00;101523.22;5109388;28;20693;-83
2022/01/13 07:34:07;;;;;;;38.07;18.97;;;;;;;-0.08;100.00;101534.41;5109670;28;20248;-83
2022/01/13 07:36:37;;;;;;;35.10;19.77;;;;;;;-0.09;100.00;101530.91;5110088;28;20190;-83
2022/01/13 07:39:07;;;;;;;36.57;20.33;;;;;;;-0.15;100.00;101530.81;5108048;28;20187;-83
2022/01/13 07:41:38;;;;;;;34.10;17.83;;;;;;;0.02;100.00;101538.03;5114233;28;20202;-83
2022/01/13 07:44:07;;;;;;;41.30;19.27;;;;;;;0.21;100.00;101533.16;5109923;28;20251;-84
2022/01/13 07:46:36;;;;;;;34.03;18.23;;;;;;;0.21;100.00;101532.28;5103063;28;20198;-83
2022/01/13 07:49:04;;;;;;;38.43;19.40;;;;;;;0.17;100.00;101543.50;5110938;28;20202;-84
2022/01/13 07:51:32;;;;;;;39.63;18.80;;;;;;;0.21;100.00;101540.09;5109605;28;20196;-83
2022/01/13 07:54:01;;;;;;;39.77;20.43;;;;;;;0.08;100.00;101533.78;5109960;28;20206;-83
2022/01/13 07:56:38;;;;;;;34.10;18.60;;;;;;;0.13;100.00;101545.19;5113697;28;20206;-84
2022/01/13 07:59:06;;;;;;;38.20;19.07;;;;;;;0.24;100.00;101542.75;5113633;28;20190;-84
2022/01/13 08:01:34;;;;;;;35.93;18.53;;;;;;;0.21;100.00;101547.94;5110722;28;20225;-84
2022/01/13 08:04:02;;;;;;;44.13;21.73;;;;;;;0.11;100.00;101552.09;5105047;28;20195;-84
2022/01/13 08:06:30;;;;;;;40.90;19.93;;;;;;;-0.03;100.00;101558.78;5107074;28;20210;-83
2022/01/13 08:08:59;;;;;;;41.83;20.07;;;;;;;-0.16;100.00;101549.00;5108657;28;20187;-84
2022/01/13 08:11:27;;;;;;;41.37;20.17;;;;;;;-0.16;100.00;101546.41;5107890;28;20194;-83
2022/01/13 08:13:57;;;;;;;34.40;19.33;;;;;;;-0.06;100.00;101549.19;5103333;28;20199;-84
2022/01/13 08:16:32;;;;;;;38.27;20.53;;;;;;;-0.14;100.00;101542.97;5108711;28;20698;-84
2022/01/13 08:21:45;;;;;;;39.23;20.17;;;;;;;-0.07;100.00;101554.38;5116304;28;20219;-84
2022/01/13 08:24:13;;;;;;;39.00;19.53;;;;;;;0.04;100.00;101554.56;5112531;28;20199;-83
2022/01/13 08:26:42;;;;;;;43.20;21.83;;;;;;;0.06;100.00;101556.34;5111645;28;20194;-84
2022/01/13 08:29:11;;;;;;;40.60;21.07;;;;;;;0.09;100.00;101574.63;5111845;28;20198;-83
2022/01/13 08:31:40;;;;;;;42.90;20.93;;;;;;;0.11;100.00;101565.13;5110542;28;20244;-84
2022/01/13 08:34:08;;;;;;;46.37;22.37;;;;;;;0.05;100.00;101556.31;5107832;28;20279;-84
2022/01/13 08:36:36;;;;;;;44.73;22.40;;;;;;;0.24;100.00;101558.41;5115997;28;20187;-83
2022/01/13 08:39:04;;;;;;;43.27;22.83;;;;;;;0.25;100.00;101553.19;5108770;28;20203;-84
2022/01/13 08:41:32;;;;;;;43.20;21.73;;;;;;;0.27;100.00;101559.31;5112166;28;20215;-83
2022/01/13 08:44:00;;;;;;;41.17;22.47;;;;;;;0.27;100.00;101554.09;5116882;28;20203;-83
2022/01/13 08:46:30;;;;;;;37.57;19.47;;;;;;;0.13;100.00;101557.34;5116960;28;20278;-83
2022/01/13 08:48:58;;;;;;;35.60;18.77;;;;;;;0.23;100.00;101552.31;5111365;28;20191;-83
2022/01/13 08:51:27;;;;;;;39.90;18.97;;;;;;;0.12;100.00;101551.25;5112586;28;20201;-84
2022/01/13 08:53:55;;;;;;;31.53;18.33;;;;;;;0.34;100.00;101560.28;5109981;28;20206;-84
2022/01/13 08:56:23;;;;;;;33.47;18.20;;;;;;;0.17;100.00;101562.63;5110160;28;20199;-83
2022/01/13 08:58:52;;;;;;;35.60;18.60;;;;;;;0.23;100.00;101562.72;5106478;28;20310;-83
2022/01/13 09:01:20;;;;;;;34.73;18.13;;;;;;;0.48;100.00;101573.53;5108948;28;20215;-84
2022/01/13 09:03:50;;;;;;;36.13;19.17;;;;;;;0.49;100.00;101573.59;5116645;28;20259;-84
2022/01/13 09:06:18;;;;;;;35.77;19.50;;;;;;;0.69;100.00;101563.47;5112391;28;20196;-84
2022/01/13 09:08:47;;;;;;;34.47;19.47;;;;;;;0.70;100.00;101566.94;5109335;28;20188;-84
2022/01/13 09:11:15;;;;;;;36.43;19.33;;;;;;;0.75;100.00;101573.09;5113719;28;20202;-84
2022/01/13 09:13:44;;;;;;;39.87;19.20;;;;;;;0.64;100.00;101572.06;5109069;28;20195;-84
2022/01/13 09:16:17;;;;;;;39.60;20.60;;;;;;;0.37;100.00;101568.16;5075692;28;20243;-84
2022/01/13 09:19:07;;;;;;;35.37;18.90;;;;;;;0.55;100.00;101570.19;5113733;28;20195;-84
2022/01/13 09:21:39;;;;;;;35.53;18.53;;;;;;;0.55;100.00;101570.19;5109337;28;20215;-83
2022/01/13 09:24:09;;;;;;;40.67;20.23;;;;;;;0.90;100.00;101569.84;5116531;28;20225;-84
2022/01/13 09:26:38;;;;;;;35.73;18.83;;;;;;;0.96;100.00;101569.91;5051450;28;20636;-85
2022/01/13 09:29:07;;;;;;;34.10;18.43;;;;;;;0.94;100.00;101576.84;5048398;28;20267;-85
2022/01/13 09:31:37;;;;;;;37.70;20.80;;;;;;;0.93;100.00;101567.28;5019968;28;20229;-84
2022/01/13 09:34:06;;;;;;;38.67;20.57;;;;;;;0.90;100.00;101562.03;5044790;28;20219;-84
2022/01/13 09:36:37;;;;;;;37.27;21.00;;;;;;;0.94;100.00;101566.41;5044584;28;20197;-84
2022/01/13 09:39:11;;;;;;;53.47;29.87;;;;;;;1.07;100.00;101565.75;5050551;28;20722;-84
2022/01/13 09:41:44;;;;;;;36.50;20.70;;;;;;;1.07;100.00;101569.22;5047820;28;20275;-83
2022/01/13 09:44:14;;;;;;;36.97;20.50;;;;;;;1.18;100.00;101571.09;5047607;28;20224;-84
2022/01/13 09:46:44;;;;;;;39.97;22.47;;;;;;;1.21;100.00;101576.34;5053381;28;20251;-83
2022/01/13 09:49:13;;;;;;;35.23;19.47;;;;;;;1.12;100.00;101567.53;5050797;28;20276;-84
2022/01/13 09:51:45;;;;;;;36.37;18.80;;;;;;;1.27;100.00;101579.06;5093802;28;20199;-84
2022/01/13 09:54:16;;;;;;;38.00;19.83;;;;;;;1.15;100.00;101570.19;5109197;28;20190;-84
2022/01/13 09:56:45;;;;;;;35.37;18.67;;;;;;;1.24;100.00;101569.44;5027764;28;20212;-84
2022/01/13 09:59:17;;;;;;;35.83;19.90;;;;;;;1.31;100.00;101565.19;5033307;28;20194;-84
2022/01/13 10:01:45;;;;;;;37.67;23.73;;;;;;;1.07;100.00;101564.00;5026940;28;20261;-83
2022/01/13 10:04:18;;;;;;;38.77;19.67;;;;;;;0.91;100.00;101561.16;5030620;28;20257;-84
2022/01/13 10:06:48;;;;;;;33.83;20.33;;;;;;;1.01;100.00;101558.69;5032419;28;20208;-83
2022/01/13 10:09:17;;;;;;;39.37;21.30;;;;;;;1.10;100.00;101571.00;5030290;28;20197;-83
2022/01/13 10:11:53;;;;;;;36.30;20.83;;;;;;;1.22;100.00;101559.84;5027700;28;20243;-83
2022/01/13 10:17:17;;;;;;;40.70;22.07;;;;;;;1.32;100.00;101559.97;5115065;28;20251;-83
2022/01/13 10:19:49;;;;;;;37.57;21.90;;;;;;;1.37;100.00;101550.47;5111267;28;20248;-84
2022/01/13 10:22:23;;;;;;;38.87;21.37;;;;;;;1.38;100.00;101557.44;5109402;28;20305;-84
2022/01/13 10:24:54;;;;;;;37.80;21.70;;;;;;;1.24;100.00;101551.16;5109115;28;20197;-83
2022/01/13 10:27:29;;;;;;;39.60;23.53;;;;;;;1.39;100.00;101537.44;5109840;28;20198;-84
2022/01/13 10:29:59;;;;;;;42.57;22.77;;;;;;;1.24;100.00;101538.09;5111559;28;20202;-83
2022/01/13 10:32:34;;;;;;;38.90;21.87;;;;;;;1.37;100.00;101545.25;5108357;28;20674;-84
2022/01/13 10:35:06;;;;;;;45.23;24.30;;;;;;;1.47;100.00;101548.84;5109869;28;20198;-83
2022/01/13 10:37:37;;;;;;;45.97;25.53;;;;;;;1.24;100.00;101545.06;5110409;28;20198;-83
2022/01/13 10:40:08;;;;;;;36.87;20.67;;;;;;;1.31;100.00;101539.94;5104599;28;20485;-83
2022/01/13 10:45:32;;;;;;;39.17;21.03;;;;;;;0.97;100.00;101540.38;5114959;28;20314;-84
2022/01/13 10:48:03;;;;;;;38.23;20.87;;;;;;;1.20;100.00;101533.72;5106187;28;20202;-83
2022/01/13 10:50:33;;;;;;;40.27;21.83;;;;;;;1.07;100.00;101524.88;5109768;28;20199;-83
2022/01/13 10:53:06;;;;;;;40.97;24.60;;;;;;;0.95;100.00;101531.63;5109138;28;20247;-84
2022/01/13 10:55:40;;;;;;;38.43;22.77;;;;;;;0.95;100.00;101526.41;5109999;28;20202;-83
2022/01/13 10:58:13;;;;;;;39.30;21.97;;;;;;;1.04;100.00;101514.38;5105932;28;20230;-84
2022/01/13 11:00:43;;;;;;;46.00;22.83;;;;;;;0.91;100.00;101522.91;5111409;28;20199;-83
2022/01/13 11:03:13;;;;;;;44.37;23.43;;;;;;;0.86;100.00;101520.22;5113229;28;20211;-84
2022/01/13 11:05:45;;;;;;;44.37;23.53;;;;;;;1.02;100.00;101517.81;5106810;28;20187;-83
2022/01/13 11:08:25;;;;;;;39.30;22.20;;;;;;;0.99;100.00;101516.06;5111290;28;20195;-83
2022/01/13 11:10:56;;;;;;;46.07;25.93;;;;;;;0.96;100.00;101510.78;5064608;28;20195;-83
2022/01/13 11:13:27;;;;;;;40.03;22.17;;;;;;;1.08;100.00;101508.34;5069102;28;20192;-84
2022/01/13 11:15:58;;;;;;;40.80;21.17;;;;;;;1.31;100.00;101520.78;5071693;28;20275;-84
2022/01/13 11:18:28;;;;;;;43.63;22.93;;;;;;;1.30;100.00;101514.69;5067683;28;20216;-84
2022/01/13 11:20:58;;;;;;;41.53;22.63;;;;;;;1.38;100.00;101514.78;5071638;28;20196;-84
2022/01/13 11:23:28;;;;;;;45.93;22.93;;;;;;;1.44;100.00;101507.00;5062238;28;20223;-84
2022/01/13 11:25:58;;;;;;;44.50;23.77;;;;;;;1.36;100.00;101511.28;5062691;28;20208;-84
2022/01/13 11:28:27;;;;;;;42.90;23.13;;;;;;;1.63;100.00;101513.31;5020177;28;20305;-84
2022/01/13 11:30:55;;;;;;;35.57;21.13;;;;;;;1.68;100.00;101503.78;5051566;28;20196;-84
2022/01/13 11:33:26;;;;;;;41.23;22.27;;;;;;;1.84;100.00;101497.00;5048645;28;20193;-83
2022/01/13 11:35:57;;;;;;;35.23;21.10;;;;;;;1.87;100.00;101500.50;5045614;28;20209;-83
2022/01/13 11:38:30;;;;;;;40.57;23.13;;;;;;;1.77;100.00;101501.28;5049288;28;20204;-84
2022/01/13 11:41:04;;;;;;;37.53;21.90;;;;;;;1.75;100.00;101495.16;5051748;28;20271;-83
2022/01/13 11:43:36;;;;;;;39.23;23.67;;;;;;;1.56;100.00;101496.72;5045212;28;20219;-83
2022/01/13 11:46:21;;;;;;;34.63;20.33;;;;;;;1.56;100.00;101496.72;5055486;28;20195;-84
2022/01/13 11:49:00;;;;;;;38.27;21.17;;;;;;;1.88;100.00;101504.00;5092986;28;20199;-84